メインページ
METAR-TAF:

METAR-TAF

空港 :

カラチ, パキスタン

ジンナー国際空港

緯度: 24-54N, 経度: 067-08E, 海抜: 21m

現時点の気象観測

当レポートは15分前の01:00(UTC)に作成
西の風 12kt
気温 29°C
湿度 70%
気圧 1007 hPa
視程: 6000m
高度2000ftの雲は散在している
高度10000ftの雲は散在している

METAR: OPKC 230100Z 26012KT 6000 SCT020 SCT100 29/23 Q1007 NOSIG

時間: 06:15 (01:15 UTC)

予報

当レポートは3時間45分前の21:30(UTC)に作成
予報は23日の 00時(UTC)から 24日の 06時(UTC)まで有効
西の風 12kt、最大22ktの突風を伴う
視程: 7000m
高度2000ftの雲は散在している
23日の 00時(UTC)から 23日の 04時(UTC)まで一時的に
西の風 8kt、最大18ktの突風を伴う
視程: 5000m
高度2000ftの千切れ雲あり
煙霧
23日の 1800時(UTC)から
西の風 10kt、最大20ktの突風を伴う
視程: 5000m
高度2000ftの雲は散在している
煙霧

TAF: OPKC 222130Z 2300/2406 26012G22KT 7000 SCT020 TEMPO 2300/2304 27008G18KT 5000 HZ BKN020 FM231800 27010G20KT 5000 HZ SCT020

4,000以上の空港の気象観測と天気予報(METAR報とTAF報)

利用可能な観測所は地図上に黄色い丸と赤い丸で示す。

丸の上にカーソルを重ねると観測所名を参照できる。

次にクリックすると気象観測と天気予報を参照できる。

マップの切り替え:黒色「×」印の緑ボタンをクリックして拡大、「-」印の緑ボタンをクリックして縮小、緑色の三角印をクリックして隣りの地図に切り替え


METAR-TAF: